Weather at Worcester Medical Center Heliport

Public forecast

Using degrees Fahrenheit for public forecast. Weather courtesy of forecast.io.

Closest aviation weather report (METAR) to Worcester Medical Center Heliport

Closest report is Worcester Regional Airport, 3.6 nm (6.6 km) WNW. Retrieved 2020/10/28 08:54 UTC (1 hour ago):

KORH 280854Z AUTO 00000KT 10SM -RA SCT022 BKN027 OVC036 05/03 A3013 RMK AO2 SLP209 P0001 60001 T00500033 53001

Closest aviation forecast (TAF) to Worcester Medical Center Heliport

Closest forecast is Worcester Regional Airport, 3.6 nm (6.6 km) WNW. Retrieved 2020/10/28 06:39 UTC (3 hours ago):

TAF KORH 280535Z 2806/2906 05003KT P6SM VCSH OVC025 FM281200 11003KT 3SM -RA BR OVC015 FM281500 14004KT 2SM BR VCSH OVC003 FM281800 21004KT 3SM BR OVC003 FM281900 24005KT P6SM BKN008 FM282200 26005KT P6SM BKN025 FM290000 26006KT P6SM SCT250